createdAt,value
2018-01-03T00:01:51.387Z,85.98
2018-01-03T00:04:22.150Z,85.66
2018-01-03T00:06:50.060Z,84.36
2018-01-03T00:09:17.912Z,84.75
2018-01-03T00:11:45.978Z,83.93
2018-01-03T00:14:15.355Z,83.76
2018-01-03T00:16:44.196Z,83.46
2018-01-03T00:19:11.937Z,82.90
2018-01-03T00:21:39.863Z,82.94
2018-01-03T00:24:10.676Z,82.82
2018-01-03T00:26:40.131Z,82.25
2018-01-03T00:29:10.570Z,81.85
2018-01-03T00:31:40.790Z,81.50
2018-01-03T00:34:08.640Z,81.09
2018-01-03T00:36:36.443Z,80.30
2018-01-03T00:39:04.276Z,80.63
2018-01-03T00:41:32.153Z,80.08
2018-01-03T00:44:00.089Z,80.32
2018-01-03T00:46:29.744Z,80.76
2018-01-03T00:48:57.673Z,80.17
2018-01-03T00:51:27.013Z,80.29
2018-01-03T00:53:55.138Z,80.65
2018-01-03T00:56:22.901Z,80.77
2018-01-03T00:58:51.532Z,81.09
2018-01-03T01:01:19.299Z,80.52
2018-01-03T01:03:47.196Z,80.12
2018-01-03T01:06:15.217Z,79.24
2018-01-03T01:08:42.999Z,79.27
2018-01-03T01:11:11.072Z,78.66
2018-01-03T01:13:40.683Z,78.54
2018-01-03T01:16:08.538Z,78.81
2018-01-03T01:18:37.258Z,78.37
2018-01-03T01:21:05.113Z,77.87
2018-01-03T01:23:33.501Z,77.99
2018-01-03T01:26:01.784Z,78.51
2018-01-03T01:28:30.554Z,78.30
2018-01-03T01:30:58.326Z,78.83
2018-01-03T01:33:28.054Z,79.32
2018-01-03T01:35:55.982Z,79.49
2018-01-03T01:38:23.732Z,79.55
2018-01-03T01:40:53.367Z,79.74
2018-01-03T01:43:22.061Z,80.17
2018-01-03T01:45:52.427Z,80.26
2018-01-03T01:48:20.259Z,80.51
2018-01-03T01:50:52.805Z,80.56
2018-01-03T01:53:22.090Z,80.78
2018-01-03T01:55:54.522Z,80.79
2018-01-03T01:58:22.600Z,80.96
2018-01-03T02:00:52.152Z,81.20
2018-01-03T02:03:19.969Z,81.69
2018-01-03T02:05:47.871Z,82.43
2018-01-03T02:08:15.727Z,82.39
2018-01-03T02:10:44.633Z,83.09
2018-01-03T02:13:13.222Z,83.69
2018-01-03T02:15:43.841Z,84.10
2018-01-03T02:18:14.179Z,85.39
2018-01-03T02:20:44.767Z,85.91
2018-01-03T02:23:15.378Z,86.55
2018-01-03T02:25:45.687Z,87.38
2018-01-03T02:28:13.533Z,88.07
2018-01-03T02:30:41.245Z,89.01
2018-01-03T02:33:11.629Z,89.71
2018-01-03T02:35:39.487Z,90.35
2018-01-03T02:38:07.600Z,90.96
2018-01-03T02:40:36.449Z,91.42
2018-01-03T02:43:04.424Z,91.63
2018-01-03T02:45:33.944Z,92.01
2018-01-03T02:48:01.794Z,92.27
2018-01-03T02:50:29.559Z,92.28
2018-01-03T02:52:59.073Z,92.56
2018-01-03T02:55:28.500Z,92.73
2018-01-03T02:57:56.372Z,92.97
2018-01-03T03:00:24.129Z,93.32
2018-01-03T03:02:52.290Z,93.57
2018-01-03T03:05:20.046Z,93.80
2018-01-03T03:07:49.584Z,93.97
2018-01-03T03:10:18.416Z,94.16
2018-01-03T03:12:46.294Z,94.63
2018-01-03T03:15:18.278Z,94.67
2018-01-03T03:17:50.669Z,94.80
2018-01-03T03:20:18.615Z,95.15
2018-01-03T03:22:47.226Z,95.21
2018-01-03T03:25:16.685Z,95.45
2018-01-03T03:27:44.588Z,95.57
2018-01-03T03:30:12.459Z,95.82
2018-01-03T03:32:41.394Z,95.94
2018-01-03T03:35:09.076Z,96.27
2018-01-03T03:37:37.024Z,96.41
2018-01-03T03:40:06.196Z,96.66
2018-01-03T03:42:34.072Z,97.07
2018-01-03T03:45:01.875Z,97.20
2018-01-03T03:47:29.757Z,97.30
2018-01-03T03:49:59.236Z,97.43
2018-01-03T03:52:27.101Z,97.70
2018-01-03T03:54:54.881Z,97.93
2018-01-03T03:57:24.811Z,97.97
2018-01-03T03:59:52.575Z,98.08
2018-01-03T04:02:21.657Z,98.16
2018-01-03T04:04:50.424Z,98.20
2018-01-03T04:07:18.951Z,98.37
2018-01-03T04:09:47.032Z,98.58
2018-01-03T04:12:18.788Z,98.63
2018-01-03T04:14:46.595Z,98.60
2018-01-03T04:17:16.008Z,98.68
2018-01-03T04:19:46.935Z,98.73
2018-01-03T04:22:15.575Z,98.75
2018-01-03T04:24:44.031Z,98.81
2018-01-03T04:27:13.829Z,98.96
2018-01-03T04:29:41.873Z,98.98
2018-01-03T04:32:09.664Z,99.01
2018-01-03T04:34:37.454Z,99.02
2018-01-03T04:37:05.217Z,99.00
2018-01-03T04:39:33.022Z,99.06
2018-01-03T04:42:00.763Z,99.18
2018-01-03T04:44:30.216Z,99.29
2018-01-03T04:46:58.177Z,99.32
2018-01-03T04:49:27.491Z,99.38
2018-01-03T04:51:58.124Z,99.42
2018-01-03T04:54:29.507Z,99.45
2018-01-03T04:56:58.727Z,99.48
2018-01-03T04:59:28.375Z,99.52
2018-01-03T05:01:57.616Z,99.53
2018-01-03T05:04:25.467Z,99.54
2018-01-03T05:06:53.746Z,99.57
2018-01-03T05:09:24.280Z,99.53
2018-01-03T05:11:52.146Z,99.54
2018-01-03T05:14:19.990Z,99.55
2018-01-03T05:16:47.917Z,99.56
2018-01-03T05:19:16.788Z,99.59
2018-01-03T05:21:46.229Z,99.63
2018-01-03T05:24:14.215Z,99.60
2018-01-03T05:26:45.044Z,99.70
2018-01-03T05:29:12.826Z,99.79
2018-01-03T05:31:40.593Z,99.85
2018-01-03T05:34:08.380Z,99.91
2018-01-03T05:36:37.896Z,99.93
2018-01-03T05:39:08.328Z,99.88
2018-01-03T05:41:36.344Z,99.96
2018-01-03T05:44:04.144Z,99.96
2018-01-03T05:46:32.621Z,99.94
2018-01-03T05:49:00.441Z,99.91
2018-01-03T05:51:28.412Z,99.80
2018-01-03T05:53:56.245Z,99.71
2018-01-03T05:56:24.464Z,99.63
2018-01-03T05:58:52.238Z,99.51
2018-01-03T06:01:20.398Z,99.50
2018-01-03T06:03:48.159Z,99.41
2018-01-03T06:06:19.742Z,99.19
2018-01-03T06:08:50.345Z,99.05
2018-01-03T06:11:19.945Z,98.84
2018-01-03T06:13:48.891Z,98.66
2018-01-03T06:16:16.726Z,98.53
2018-01-03T06:18:45.201Z,98.47
2018-01-03T06:21:12.980Z,98.47
2018-01-03T06:23:41.770Z,98.42
2018-01-03T06:26:11.282Z,98.42
2018-01-03T06:28:39.136Z,98.41
2018-01-03T06:31:07.063Z,98.34
2018-01-03T06:33:34.962Z,98.30
2018-01-03T06:36:03.154Z,98.28
2018-01-03T06:38:31.756Z,98.20
2018-01-03T06:41:00.248Z,98.13
2018-01-03T06:43:28.052Z,98.16
2018-01-03T06:45:55.864Z,98.21
2018-01-03T06:48:28.580Z,98.29
2018-01-03T06:50:56.486Z,98.31
2018-01-03T06:53:24.231Z,98.29
2018-01-03T06:55:53.641Z,98.16
2018-01-03T06:58:22.172Z,98.00
2018-01-03T07:00:51.064Z,97.92
2018-01-03T07:03:21.693Z,97.77
2018-01-03T07:05:50.268Z,97.54
2018-01-03T07:08:19.240Z,97.42
2018-01-03T07:10:46.995Z,97.30
2018-01-03T07:13:14.800Z,97.33
2018-01-03T07:15:42.524Z,97.23
2018-01-03T07:18:11.010Z,97.09
2018-01-03T07:20:40.481Z,97.01
2018-01-03T07:23:08.363Z,96.98
2018-01-03T07:25:36.334Z,96.94
2018-01-03T07:28:05.244Z,96.55
2018-01-03T07:30:34.825Z,96.17
2018-01-03T07:33:02.918Z,95.80
2018-01-03T07:35:32.438Z,95.39
2018-01-03T07:38:01.952Z,95.13
2018-01-03T07:40:30.087Z,95.03
2018-01-03T07:43:02.140Z,94.88
2018-01-03T07:45:30.045Z,94.58
2018-01-03T07:47:57.771Z,94.54
2018-01-03T07:50:25.310Z,94.49
2018-01-03T07:52:52.832Z,94.50
2018-01-03T07:55:20.383Z,94.41
2018-01-03T07:57:47.879Z,94.35
2018-01-03T08:00:15.376Z,94.43
2018-01-03T08:02:42.908Z,94.23
2018-01-03T08:05:10.409Z,94.16
2018-01-03T08:07:37.909Z,94.28
2018-01-03T08:10:05.498Z,94.21
2018-01-03T08:12:33.011Z,94.18
2018-01-03T08:15:00.530Z,94.28
2018-01-03T08:17:28.658Z,94.00
2018-01-03T08:19:57.075Z,93.92
2018-01-03T08:22:24.565Z,93.86
2018-01-03T08:24:52.221Z,93.86
2018-01-03T08:27:19.798Z,93.43
2018-01-03T08:29:47.314Z,93.28
2018-01-03T08:32:14.897Z,93.17
2018-01-03T08:34:42.404Z,92.73
2018-01-03T08:37:09.989Z,92.78
2018-01-03T08:39:37.487Z,93.14
2018-01-03T08:42:05.036Z,93.50
2018-01-03T08:44:32.614Z,92.87
2018-01-03T08:47:00.312Z,92.64
2018-01-03T08:49:27.824Z,92.82
2018-01-03T08:51:55.447Z,92.99
2018-01-03T08:54:23.123Z,92.91
2018-01-03T08:56:50.605Z,92.93
2018-01-03T08:59:18.413Z,92.74
2018-01-03T09:01:45.927Z,93.19
2018-01-03T09:04:13.440Z,93.26
2018-01-03T09:06:40.957Z,93.68
2018-01-03T09:09:09.325Z,91.49
2018-01-03T09:11:36.864Z,89.53
2018-01-03T09:14:04.350Z,87.58
2018-01-03T09:16:31.996Z,86.41
2018-01-03T09:18:59.499Z,86.29
2018-01-03T09:21:27.557Z,86.75
2018-01-03T09:23:55.892Z,88.15
2018-01-03T09:26:23.377Z,91.02
2018-01-03T09:28:51.173Z,91.72
2018-01-03T09:31:18.698Z,90.93
2018-01-03T09:33:46.230Z,91.41
2018-01-03T09:36:14.082Z,92.29
2018-01-03T09:38:41.691Z,92.18
2018-01-03T09:41:09.628Z,90.87
2018-01-03T09:43:37.179Z,90.50
2018-01-03T09:46:04.936Z,91.47
2018-01-03T09:48:32.660Z,91.53
2018-01-03T09:51:00.161Z,91.57
2018-01-03T09:53:28.213Z,92.13
2018-01-03T09:55:55.709Z,91.31
2018-01-03T09:58:23.245Z,91.66
2018-01-03T10:00:50.916Z,91.97
2018-01-03T10:03:18.476Z,92.29
2018-01-03T10:05:46.376Z,92.36
2018-01-03T10:08:13.876Z,92.55
2018-01-03T10:10:41.839Z,92.54
2018-01-03T10:13:10.182Z,92.97
2018-01-03T10:15:37.675Z,93.65
2018-01-03T10:18:05.311Z,94.01
2018-01-03T10:20:32.809Z,94.00
2018-01-03T10:23:00.620Z,92.69
2018-01-03T10:25:28.135Z,92.18
2018-01-03T10:27:56.049Z,90.88
2018-01-03T10:30:23.578Z,89.73
2018-01-03T10:32:51.403Z,91.10
2018-01-03T10:35:19.344Z,91.24
2018-01-03T10:37:46.901Z,91.61
2018-01-03T10:40:14.882Z,91.97
2018-01-03T10:42:42.398Z,92.08
2018-01-03T10:45:10.063Z,92.17
2018-01-03T10:47:37.600Z,92.81
2018-01-03T10:50:05.107Z,93.52
2018-01-03T10:52:32.746Z,93.16
2018-01-03T10:55:00.300Z,93.46
2018-01-03T10:57:28.194Z,93.76
2018-01-03T10:59:55.742Z,94.34
2018-01-03T11:02:23.259Z,94.31
2018-01-03T11:04:50.956Z,94.17
2018-01-03T11:07:18.481Z,94.50
2018-01-03T11:09:46.230Z,94.95
2018-01-03T11:12:13.728Z,95.19
2018-01-03T11:14:41.373Z,95.33
2018-01-03T11:17:08.864Z,95.54
2018-01-03T11:19:36.400Z,95.74
2018-01-03T11:22:03.942Z,96.11
2018-01-03T11:24:31.424Z,96.23
2018-01-03T11:26:58.940Z,96.47
2018-01-03T11:29:26.566Z,96.81
2018-01-03T11:31:54.373Z,97.23
2018-01-03T11:34:21.868Z,97.36
2018-01-03T11:36:49.394Z,97.24
2018-01-03T11:39:17.163Z,97.62
2018-01-03T11:41:44.685Z,97.73
2018-01-03T11:44:12.585Z,97.84
2018-01-03T11:46:40.087Z,97.91
2018-01-03T11:49:07.701Z,97.92
2018-01-03T11:51:35.678Z,98.02
2018-01-03T11:54:03.204Z,98.15
2018-01-03T11:56:30.970Z,98.27
2018-01-03T11:58:58.475Z,98.44
2018-01-03T12:01:26.371Z,98.54
2018-01-03T12:03:53.894Z,98.59
2018-01-03T12:06:21.580Z,98.60
2018-01-03T12:08:49.521Z,97.77
2018-01-03T12:11:17.146Z,96.69
2018-01-03T12:13:44.812Z,96.32
2018-01-03T12:16:12.333Z,95.88
2018-01-03T12:18:40.155Z,95.49
2018-01-03T12:21:07.655Z,93.82
2018-01-03T12:23:35.292Z,93.93
2018-01-03T12:26:03.432Z,93.44
2018-01-03T12:28:30.951Z,93.88
2018-01-03T12:30:58.778Z,94.00
2018-01-03T12:33:26.287Z,93.47
2018-01-03T12:35:54.089Z,92.32
2018-01-03T12:38:21.607Z,91.28
2018-01-03T12:40:49.109Z,91.46
2018-01-03T12:43:17.016Z,90.66
2018-01-03T12:45:44.534Z,89.35
2018-01-03T12:48:12.584Z,89.54
2018-01-03T12:50:40.074Z,89.11
2018-01-03T12:53:07.679Z,88.44
2018-01-03T12:55:35.412Z,88.75
2018-01-03T12:58:02.916Z,88.76
2018-01-03T13:00:30.718Z,88.06
2018-01-03T13:02:58.234Z,88.22
2018-01-03T13:05:25.769Z,87.82
2018-01-03T13:07:53.480Z,87.04
2018-01-03T13:10:20.988Z,87.79
2018-01-03T13:12:48.747Z,87.32
2018-01-03T13:15:16.227Z,87.53
2018-01-03T13:17:44.779Z,87.49
2018-01-03T13:20:12.269Z,87.89
2018-01-03T13:22:39.802Z,88.62
2018-01-03T13:25:07.449Z,88.31
2018-01-03T13:27:34.944Z,89.32
2018-01-03T13:30:02.475Z,89.92
2018-01-03T13:32:29.996Z,91.19
2018-01-03T13:34:57.528Z,91.48
2018-01-03T13:37:25.176Z,92.51
2018-01-03T13:39:52.916Z,91.78
2018-01-03T13:42:20.426Z,90.41
2018-01-03T13:44:48.084Z,89.39
2018-01-03T13:47:16.520Z,89.41
2018-01-03T13:49:44.053Z,89.43
2018-01-03T13:52:11.546Z,88.77
2018-01-03T13:54:39.055Z,88.82
2018-01-03T13:57:06.588Z,89.03
2018-01-03T13:59:34.083Z,90.02
2018-01-03T14:02:01.618Z,90.21
2018-01-03T14:04:29.313Z,89.83
2018-01-03T14:06:56.828Z,89.08
2018-01-03T14:09:24.393Z,89.23
2018-01-03T14:11:51.965Z,89.66
2018-01-03T14:14:19.496Z,90.49
2018-01-03T14:16:47.087Z,91.15
2018-01-03T14:19:14.631Z,91.86
2018-01-03T14:21:42.930Z,92.43
2018-01-03T14:24:10.434Z,92.54
2018-01-03T14:26:38.332Z,92.46
2018-01-03T14:29:06.563Z,92.50
2018-01-03T14:31:34.090Z,92.26
2018-01-03T14:34:01.582Z,92.07
2018-01-03T14:36:29.170Z,91.88
2018-01-03T14:38:57.579Z,91.39
2018-01-03T14:41:25.142Z,90.44
2018-01-03T14:43:52.648Z,90.69
2018-01-03T14:46:21.710Z,90.10
2018-01-03T14:48:49.229Z,90.09
2018-01-03T14:51:16.860Z,89.78
2018-01-03T14:53:44.402Z,88.91
2018-01-03T14:56:12.228Z,89.36
2018-01-03T14:58:40.274Z,88.93
2018-01-03T15:01:07.825Z,88.85
2018-01-03T15:03:35.351Z,89.05
2018-01-03T15:06:02.838Z,88.73
2018-01-03T15:08:30.356Z,87.89
2018-01-03T15:10:57.883Z,87.56
2018-01-03T15:13:25.444Z,87.26
2018-01-03T15:15:52.978Z,85.99
2018-01-03T15:18:20.492Z,85.77
2018-01-03T15:20:47.995Z,85.04
2018-01-03T15:23:15.537Z,85.69
2018-01-03T15:25:43.118Z,84.99
2018-01-03T15:28:10.674Z,85.07
2018-01-03T15:30:38.578Z,84.61
2018-01-03T15:33:06.235Z,83.93
2018-01-03T15:35:33.771Z,84.59
2018-01-03T15:38:01.285Z,84.27
2018-01-03T15:40:28.784Z,84.31
2018-01-03T15:42:56.304Z,83.84
2018-01-03T15:45:23.810Z,83.24
2018-01-03T15:47:51.333Z,82.74
2018-01-03T15:50:18.848Z,82.41
2018-01-03T15:52:46.660Z,82.61
2018-01-03T15:55:14.273Z,82.66
2018-01-03T15:57:41.789Z,82.88
2018-01-03T16:00:09.298Z,82.56
2018-01-03T16:02:37.777Z,82.33
2018-01-03T16:05:05.292Z,82.52
2018-01-03T16:07:32.858Z,82.04
2018-01-03T16:10:00.365Z,82.68
2018-01-03T16:12:27.889Z,82.94
2018-01-03T16:14:55.463Z,83.49
2018-01-03T16:17:23.788Z,84.21
2018-01-03T16:19:51.375Z,84.29
2018-01-03T16:22:18.933Z,83.55
2018-01-03T16:24:46.890Z,83.22
2018-01-03T16:27:14.383Z,82.93
2018-01-03T16:29:41.997Z,82.65
2018-01-03T16:32:09.648Z,82.87
2018-01-03T16:34:37.916Z,83.00
2018-01-03T16:37:05.470Z,83.54
2018-01-03T16:39:32.967Z,84.01
2018-01-03T16:42:00.530Z,84.46
2018-01-03T16:44:28.077Z,84.70
2018-01-03T16:46:55.637Z,84.37
2018-01-03T16:49:23.149Z,84.49
2018-01-03T16:51:56.788Z,84.73
2018-01-03T16:54:24.298Z,84.29
2018-01-03T16:56:51.863Z,84.22
2018-01-03T16:59:19.416Z,84.00
2018-01-03T17:01:46.926Z,84.10
2018-01-03T17:04:14.780Z,84.11
2018-01-03T17:06:42.287Z,83.79
2018-01-03T17:09:10.039Z,83.55
2018-01-03T17:11:37.588Z,83.36
2018-01-03T17:14:05.208Z,83.02
2018-01-03T17:16:32.728Z,82.95
2018-01-03T17:19:00.253Z,82.78
2018-01-03T17:21:27.803Z,82.44
2018-01-03T17:23:55.521Z,82.48
2018-01-03T17:26:23.039Z,81.93
2018-01-03T17:28:50.639Z,81.79
2018-01-03T17:31:18.268Z,81.46
2018-01-03T17:33:47.001Z,81.13
2018-01-03T17:36:14.784Z,81.34
2018-01-03T17:38:42.478Z,81.46
2018-01-03T17:41:10.779Z,81.49
2018-01-03T17:43:38.322Z,82.04
2018-01-03T17:46:05.846Z,81.96
2018-01-03T17:48:33.407Z,81.60
2018-01-03T17:51:01.142Z,81.37
2018-01-03T17:53:28.644Z,81.14
2018-01-03T17:55:56.349Z,81.09
2018-01-03T17:58:23.909Z,81.20
2018-01-03T18:00:51.454Z,81.53
2018-01-03T18:03:19.004Z,81.58
2018-01-03T18:05:46.708Z,81.03
2018-01-03T18:08:14.249Z,80.88
2018-01-03T18:10:41.776Z,80.58
2018-01-03T18:13:09.464Z,80.92
2018-01-03T18:15:36.960Z,81.21
2018-01-03T18:18:04.526Z,80.68
2018-01-03T18:20:32.436Z,80.99
2018-01-03T18:22:59.985Z,81.20
2018-01-03T18:25:27.519Z,81.34
2018-01-03T18:27:55.072Z,81.48
2018-01-03T18:30:22.565Z,82.01
2018-01-03T18:32:51.054Z,82.10
2018-01-03T18:35:18.675Z,82.83
2018-01-03T18:37:46.283Z,82.79
2018-01-03T18:40:14.102Z,82.97
2018-01-03T18:42:42.316Z,83.41
2018-01-03T18:45:09.866Z,83.42
2018-01-03T18:47:37.397Z,83.35
2018-01-03T18:50:04.957Z,83.09
2018-01-03T18:52:32.521Z,82.99
2018-01-03T18:55:00.075Z,82.31
2018-01-03T18:57:27.612Z,82.42
2018-01-03T18:59:56.688Z,82.29
2018-01-03T19:02:24.601Z,82.22
2018-01-03T19:04:52.932Z,82.64
2018-01-03T19:07:20.501Z,81.93
2018-01-03T19:09:48.099Z,81.44
2018-01-03T19:12:15.856Z,81.35
2018-01-03T19:14:43.515Z,80.74
2018-01-03T19:17:11.284Z,80.70
2018-01-03T19:19:38.927Z,80.39
2018-01-03T19:22:06.633Z,79.57
2018-01-03T19:24:34.281Z,80.06
2018-01-03T19:27:02.209Z,80.21
2018-01-03T19:29:30.051Z,79.84
2018-01-03T19:31:57.712Z,79.85
2018-01-03T19:34:25.390Z,79.34
2018-01-03T19:36:53.066Z,78.99
2018-01-03T19:39:20.740Z,79.30
2018-01-03T19:41:48.454Z,79.12
2018-01-03T19:44:16.396Z,79.11
2018-01-03T19:46:44.149Z,79.05
2018-01-03T19:49:11.895Z,79.24
2018-01-03T19:51:39.573Z,79.11
2018-01-03T19:54:07.446Z,79.10
2018-01-03T19:56:35.254Z,79.37
2018-01-03T19:59:02.958Z,79.18
2018-01-03T20:01:30.680Z,78.78
2018-01-03T20:03:58.406Z,78.66
2018-01-03T20:06:26.053Z,78.54
2018-01-03T20:08:53.746Z,78.76
2018-01-03T20:11:21.452Z,78.53
2018-01-03T20:13:49.142Z,78.86
2018-01-03T20:16:16.800Z,79.22
2018-01-03T20:18:44.462Z,79.19
2018-01-03T20:21:12.191Z,78.98
2018-01-03T20:23:39.861Z,78.96
2018-01-03T20:26:07.580Z,79.21
2018-01-03T20:41:35.314Z,79.42
2018-01-03T20:44:02.971Z,79.85
2018-01-03T20:46:30.707Z,79.90
2018-01-03T20:48:58.439Z,79.78
2018-01-03T20:51:26.145Z,79.90
2018-01-03T20:53:53.883Z,80.17
2018-01-03T20:56:21.521Z,80.20
2018-01-03T20:58:49.230Z,80.17
2018-01-03T21:01:16.918Z,80.41
2018-01-03T21:03:45.583Z,80.56
2018-01-03T21:06:13.250Z,80.59
2018-01-03T21:08:40.970Z,80.57
2018-01-03T21:11:09.311Z,80.40
2018-01-03T21:13:37.712Z,80.30
2018-01-03T21:16:05.424Z,80.52
2018-01-03T21:18:33.081Z,80.18
2018-01-03T21:21:00.827Z,80.13
2018-01-03T21:23:28.524Z,80.03
2018-01-03T21:25:56.200Z,79.70
2018-01-03T21:28:24.641Z,79.86
2018-01-03T21:30:52.287Z,80.22
2018-01-03T21:33:19.972Z,79.78
2018-01-03T21:35:47.608Z,79.85
2018-01-03T21:38:15.294Z,80.25
2018-01-03T21:40:43.486Z,80.27
2018-01-03T21:43:11.436Z,80.03
2018-01-03T21:45:39.057Z,80.61
2018-01-03T21:48:06.662Z,80.49
2018-01-03T21:50:34.286Z,80.39
2018-01-03T21:53:01.879Z,80.94
2018-01-03T21:55:29.790Z,80.81
2018-01-03T21:57:57.490Z,80.67
2018-01-03T22:00:25.163Z,80.57
2018-01-03T22:02:52.817Z,80.69
2018-01-03T22:05:20.377Z,80.31
2018-01-03T22:07:47.984Z,80.43
2018-01-03T22:10:15.572Z,80.79
2018-01-03T22:12:46.008Z,80.37
2018-01-03T22:15:13.716Z,80.95
2018-01-03T22:17:41.262Z,81.35
2018-01-03T22:20:08.870Z,81.60
2018-01-03T22:22:36.430Z,81.91
2018-01-03T22:25:03.993Z,81.92
2018-01-03T22:27:31.493Z,82.27
2018-01-03T22:29:59.055Z,82.37
2018-01-03T22:32:26.594Z,82.37
2018-01-03T22:34:54.409Z,82.67
2018-01-03T22:37:22.014Z,82.46
2018-01-03T22:39:49.657Z,82.65
2018-01-03T22:42:17.163Z,82.60
2018-01-03T22:44:44.677Z,82.91
2018-01-03T22:47:12.373Z,82.94
2018-01-03T22:49:39.861Z,82.89
2018-01-03T22:52:07.384Z,82.87
2018-01-03T22:54:34.912Z,83.17
2018-01-03T22:57:03.340Z,83.37
2018-01-03T22:59:30.853Z,83.43
2018-01-03T23:01:58.373Z,83.41
2018-01-03T23:04:25.991Z,83.69
2018-01-03T23:06:53.537Z,83.56
2018-01-03T23:09:21.116Z,83.49
2018-01-03T23:11:48.699Z,83.20
2018-01-03T23:14:16.230Z,83.02
2018-01-03T23:16:43.873Z,82.88
2018-01-03T23:19:11.369Z,82.81
2018-01-03T23:21:38.885Z,82.96
2018-01-03T23:24:06.422Z,82.90
2018-01-03T23:26:34.118Z,82.77
2018-01-03T23:29:01.719Z,82.91
2018-01-03T23:31:29.220Z,82.74
2018-01-03T23:33:56.747Z,82.72
2018-01-03T23:36:24.244Z,82.96
2018-01-03T23:38:51.792Z,82.82
2018-01-03T23:41:19.328Z,82.61
2018-01-03T23:43:46.933Z,82.71
2018-01-03T23:46:14.443Z,82.90
2018-01-03T23:48:42.789Z,82.95
2018-01-03T23:51:10.575Z,82.97
2018-01-03T23:53:38.065Z,82.88
2018-01-03T23:56:05.572Z,82.76
2018-01-03T23:58:33.098Z,83.01
